CST,Max TemperatureF,Mean TemperatureF,Min TemperatureF,Max Dew PointF,MeanDew PointF,Min DewpointF,Max Humidity, Mean Humidity, Min Humidity, Max Sea Level PressureIn, Mean Sea Level PressureIn, Min Sea Level PressureIn, Max VisibilityMiles, Mean VisibilityMiles, Min VisibilityMiles, Max Wind SpeedMPH, Mean Wind SpeedMPH, Max Gust SpeedMPH,PrecipitationIn, CloudCover, Events, WindDirDegrees
2013-2-1,23,8,-8,14,-2,-14,79,70,59,30.38,30.25,30.04,10,10,10,24,8,31,0.00,4,,211
2013-2-2,30,23,17,25,15,7,94,74,58,30.17,30.08,29.99,10,9,2,16,11,22,0.00,7,Snow,270
2013-2-3,31,24,16,26,17,11,81,68,51,30.18,30.03,29.81,10,10,2,26,15,40,0.00,2,,235
2013-2-4,32,24,15,25,19,13,93,82,73,29.98,29.90,29.74,10,10,10,21,11,25,0.00,5,,321
2013-2-5,43,32,21,32,26,18,95,80,58,30.11,29.93,29.81,10,10,7,16,9,22,0.00,3,,261
2013-2-6,45,35,25,34,30,24,96,80,59,30.12,30.01,29.90,10,8,4,16,6,21,0.00,3,,136
2013-2-7,42,35,28,40,32,26,98,92,76,30.18,29.98,29.87,10,5,0,22,10,26,0.20,8,Rain,318
2013-2-8,27,26,25,25,23,22,91,88,86,30.35,30.28,30.19,10,10,7,15,9,20,0.00,8,,69
2013-2-9,38,32,26,32,28,24,94,88,74,30.24,30.06,29.81,10,8,3,17,13,22,0.03,7,Rain,136
2013-2-10,51,41,31,43,33,23,97,85,59,29.79,29.51,29.30,10,6,1,33,18,43,0.02,8,Rain,180
2013-2-11,33,28,24,24,22,20,87,74,68,30.13,29.97,29.67,10,10,10,30,22,40,0.00,7,,276
2013-2-12,44,32,20,26,23,18,93,75,44,30.14,30.02,29.88,10,10,7,13,6,17,0.00,0,,223
2013-2-13,49,36,24,29,25,21,88,67,38,29.87,29.78,29.70,10,9,5,15,8,20,0.00,1,,249
2013-2-14,43,34,24,30,26,17,84,70,51,30.16,29.93,29.72,10,9,7,23,12,28,0.00,5,,291
2013-2-15,28,22,15,17,12,5,83,65,46,30.31,30.27,30.17,10,10,10,17,11,22,0.00,1,,314
2013-2-16,34,22,10,21,14,8,90,70,35,30.28,30.17,30.07,10,10,7,12,6,16,0.00,3,,233
2013-2-17,47,35,23,27,23,20,85,63,42,30.07,29.90,29.65,10,10,10,21,9,25,0.00,2,,139
2013-2-18,42,30,16,32,24,9,85,69,61,29.94,29.68,29.54,10,10,3,28,15,39,0.00,4,Snow,282
2013-2-19,25,18,10,10,4,1,74,59,35,30.33,30.16,29.95,10,10,10,25,19,32,0.00,3,,299
2013-2-20,22,11,0,10,2,-4,80,62,45,30.40,30.33,30.25,10,10,10,13,7,12,0.00,2,,40
2013-2-21,24,21,18,23,16,10,95,79,64,30.28,30.04,29.78,10,6,0,21,11,29,0.07,7,Snow,67
2013-2-22,26,22,18,22,18,15,96,84,73,29.99,29.87,29.74,10,7,1,20,8,23,0.00,7,Snow,274
2013-2-23,30,18,7,19,14,5,92,76,59,29.98,29.93,29.89,10,10,7,13,7,,0.00,1,,213
2013-2-24,39,25,11,26,20,9,92,75,53,30.06,30.00,29.91,10,10,5,10,5,,0.00,1,,130
2013-2-25,38,32,25,29,27,23,89,80,66,30.06,29.98,29.84,10,9,7,14,5,16,0.00,4,,35
2013-2-26,32,30,28,29,28,27,96,90,81,29.82,29.72,29.62,10,3,0,28,15,39,0.00,8,Snow,357
2013-2-27,31,28,24,27,24,22,94,86,75,29.96,29.84,29.76,10,5,0,20,13,26,0.00,8,Snow,312
2013-2-28,31,27,23,24,22,19,87,81,69,30.15,30.09,29.97,10,10,10,20,14,26,0.00,8,Snow,317